KCVS/CVS METAR and TAF weather

Enter ICAO airport designator
Station Type Date Time Source
KCVS METAR 2024/07/23 05:55 UTC NOAA

KCVS 230555Z AUTO 00000KT 10SM CLR 18/16 A3020 RMK AO2 SLP172 T01790155 10252 20175 51007 $


Station Type Date Time Source
KCVS Decoded METAR 2024/07/23 05:55 UTC NOAA

Cannon Air Force Base / Clovis, NM, United States (KCVS) 34-23N 103-19W
Jul 23, 2024 - 01:55 AM EDT / 2024.07.23 0555 UTC
Wind: Calm:0
Visibility: 10 mile(s):0
Sky conditions: clear
Temperature: 64.2 F (17.9 C)
Dew Point: 59.9 F (15.5 C)
Relative Humidity: 85%
Pressure (altimeter): 30.2 in. Hg (1022 hPa)
Pressure tendency: 0.02 inches (0.7 hPa) higher than three hours ago
ob: KCVS 230555Z AUTO 00000KT 10SM CLR 18/16 A3020 RMK AO2 SLP172 T01790155 10252 20175 51007
cycle: 6

Station Type Date Time Source
KCVS TAF 2024/07/23 02:51 UTC NOAA